Time;durP1;ratioP1;P1;durP2;ratioP2;P2;SDS_P1;SDS_P2;PMS_P1;PMS_P2;Temp;Humidity;BMP_temperature;BMP_pressure;BME280_temperature;BME280_humidity;BME280_pressure;Samples;Min_cycle;Max_cycle;Signal;HPM_P1;HPM_P2
2021/12/24 00:01:43;;;;;;;5.55;2.95;;;7.70;96.10;;;;;;5040225;28;20048;-70
2021/12/24 00:04:09;;;;;;;5.18;2.58;;;7.70;96.10;;;;;;5038795;28;20041;-70
2021/12/24 00:06:36;;;;;;;6.75;3.20;;;7.70;96.00;;;;;;5035986;28;20040;-71
2021/12/24 00:09:05;;;;;;;4.60;2.50;;;7.80;96.00;;;;;;5032684;28;20037;-70
2021/12/24 00:11:33;;;;;;;10.00;2.55;;;7.80;96.00;;;;;;5032756;28;20064;-70
2021/12/24 00:14:01;;;;;;;4.80;2.78;;;7.80;95.90;;;;;;5034279;28;20026;-70
2021/12/24 00:16:37;;;;;;;4.75;2.58;;;7.80;95.90;;;;;;5050965;28;20083;-70
2021/12/24 00:19:25;;;;;;;4.10;2.33;;;7.80;95.90;;;;;;5032893;28;20453;-70
2021/12/24 00:35:31;;;;;;;4.68;2.60;;;7.90;95.90;;;;;;5041026;28;20033;-70
2021/12/24 00:38:03;;;;;;;4.20;2.22;;;7.90;95.90;;;;;;5037416;28;20491;-70
2021/12/24 00:40:32;;;;;;;4.50;2.38;;;7.90;95.90;;;;;;5052604;28;20032;-70
2021/12/24 00:42:58;;;;;;;4.20;2.17;;;8.00;96.00;;;;;;5051363;28;20116;-70
2021/12/24 00:45:27;;;;;;;1.83;1.40;;;8.00;96.00;;;;;;5041345;28;20127;-70
2021/12/24 00:47:54;;;;;;;6.80;1.92;;;7.90;95.90;;;;;;5044062;28;20469;-70
2021/12/24 00:50:25;;;;;;;3.42;1.70;;;8.00;96.00;;;;;;5042503;28;20029;-70
2021/12/24 00:52:58;;;;;;;4.63;2.15;;;8.00;96.00;;;;;;5046925;28;20561;-70
2021/12/24 00:55:27;;;;;;;2.65;1.63;;;8.00;95.90;;;;;;5032596;28;20034;-70
2021/12/24 00:57:56;;;;;;;4.25;2.85;;;8.00;95.90;;;;;;5052127;28;20033;-70
2021/12/24 01:00:40;;;;;;;3.90;2.60;;;8.10;95.90;;;;;;5038739;28;20029;-70
2021/12/24 01:03:09;;;;;;;2.38;1.48;;;8.00;95.90;;;;;;5038277;28;20033;-71
2021/12/24 01:05:36;;;;;;;1.42;1.00;;;8.10;95.90;;;;;;5035542;28;20108;-70
2021/12/24 01:08:05;;;;;;;2.60;1.40;;;8.10;95.80;;;;;;5038766;28;20033;-70
2021/12/24 01:10:35;;;;;;;2.83;1.83;;;8.10;95.80;;;;;;5031054;28;20531;-70
2021/12/24 01:13:03;;;;;;;3.83;1.50;;;8.10;95.80;;;;;;5049411;28;20037;-70
2021/12/24 01:15:30;;;;;;;2.67;2.00;;;8.20;95.80;;;;;;5041103;28;20029;-70
2021/12/24 01:18:07;;;;;;;4.53;2.78;;;8.20;95.70;;;;;;5055267;28;20032;-70
2021/12/24 01:20:43;;;;;;;1.80;1.42;;;8.20;95.70;;;;;;5055971;28;20031;-70
2021/12/24 01:26:03;;;;;;;1.48;1.25;;;8.30;95.70;;;;;;5054503;28;20091;-70
2021/12/24 01:44:50;;;;;;;0.82;0.82;;;8.30;95.80;;;;;;5041509;28;20029;-70
2021/12/24 01:47:16;;;;;;;1.65;1.38;;;8.30;95.80;;;;;;5039711;28;20080;-70
2021/12/24 01:49:42;;;;;;;1.58;1.48;;;8.30;95.80;;;;;;5044874;28;20167;-70
2021/12/24 01:52:09;;;;;;;2.55;1.58;;;8.30;95.80;;;;;;5032797;28;20124;-70
2021/12/24 01:54:39;;;;;;;1.35;1.10;;;8.30;95.80;;;;;;5044460;28;20028;-70
2021/12/24 01:57:05;;;;;;;2.63;1.40;;;8.30;95.80;;;;;;5052731;28;20037;-70
2021/12/24 01:59:30;;;;;;;1.65;1.30;;;8.40;95.90;;;;;;5042191;28;20029;-70
2021/12/24 02:01:56;;;;;;;1.83;1.35;;;8.40;95.90;;;;;;5051398;28;20029;-70
2021/12/24 02:04:22;;;;;;;3.33;1.77;;;8.40;95.90;;;;;;5044271;28;20026;-71
2021/12/24 02:06:48;;;;;;;1.20;0.98;;;8.40;95.90;;;;;;5047624;28;20025;-71
2021/12/24 02:09:14;;;;;;;2.40;1.63;;;8.40;95.90;;;;;;5043766;28;20029;-70
2021/12/24 02:11:41;;;;;;;1.05;0.98;;;8.50;96.00;;;;;;5052396;28;20478;-70
2021/12/24 02:14:10;;;;;;;2.30;1.55;;;8.40;96.00;;;;;;5052679;28;20032;-70
2021/12/24 02:17:13;;;;;;;3.05;1.83;;;8.40;96.00;;;;;;5052300;28;20112;-70
2021/12/24 02:30:39;;;;;;;1.95;1.45;;;8.40;96.20;;;;;;5039521;28;20030;-71
2021/12/24 02:33:05;;;;;;;1.65;1.25;;;8.40;96.30;;;;;;5036870;28;20029;-70
2021/12/24 02:35:32;;;;;;;2.83;1.63;;;8.40;96.30;;;;;;5048611;28;20021;-70
2021/12/24 02:37:59;;;;;;;1.48;1.05;;;8.40;96.30;;;;;;5045073;28;20495;-71
2021/12/24 02:40:25;;;;;;;1.48;1.23;;;8.50;96.40;;;;;;5035986;28;20469;-71
2021/12/24 02:42:54;;;;;;;1.73;0.85;;;8.50;96.30;;;;;;5048489;28;20041;-71
2021/12/24 02:45:22;;;;;;;0.95;0.80;;;8.50;96.30;;;;;;5048545;28;20028;-71
2021/12/24 02:56:04;;;;;;;3.08;1.67;;;8.60;96.20;;;;;;5040158;28;20026;-71
2021/12/24 02:58:41;;;;;;;1.58;1.20;;;8.60;96.20;;;;;;5043086;28;20048;-71
2021/12/24 03:01:09;;;;;;;1.30;1.20;;;8.60;96.20;;;;;;5051562;28;20401;-71
2021/12/24 03:03:35;;;;;;;1.60;0.98;;;8.70;96.20;;;;;;5042334;28;20057;-71
2021/12/24 03:06:00;;;;;;;1.10;1.00;;;8.70;96.20;;;;;;5032604;28;20496;-71
2021/12/24 03:08:26;;;;;;;1.52;1.27;;;8.70;96.30;;;;;;5034663;28;20037;-71
2021/12/24 03:10:54;;;;;;;2.05;1.10;;;8.70;96.30;;;;;;5032850;28;20112;-71
2021/12/24 03:13:22;;;;;;;1.85;1.40;;;8.70;96.30;;;;;;5033936;28;20041;-71
2021/12/24 03:15:50;;;;;;;1.25;0.98;;;8.70;96.50;;;;;;5034440;28;20024;-71
2021/12/24 03:18:23;;;;;;;1.67;1.23;;;8.70;96.20;;;;;;5042555;28;20419;-71
2021/12/24 03:20:49;;;;;;;1.25;1.08;;;8.70;96.20;;;;;;5050078;28;20103;-70
2021/12/24 03:23:35;;;;;;;0.80;0.75;;;8.70;96.20;;;;;;5039300;28;20486;-71
2021/12/24 03:26:01;;;;;;;2.00;1.23;;;8.80;96.20;;;;;;5032326;28;20025;-70
2021/12/24 03:28:27;;;;;;;1.65;1.30;;;8.80;96.20;;;;;;5033264;28;20045;-71
2021/12/24 03:30:52;;;;;;;1.20;1.08;;;8.80;96.20;;;;;;5032979;28;20082;-71
2021/12/24 03:33:18;;;;;;;2.70;1.55;;;8.80;96.30;;;;;;5047210;28;20025;-71
2021/12/24 03:35:44;;;;;;;2.08;1.20;;;8.80;96.30;;;;;;5033588;28;20041;-71
2021/12/24 03:38:10;;;;;;;2.20;1.70;;;8.80;96.30;;;;;;5043790;28;20035;-71
2021/12/24 03:40:36;;;;;;;1.45;1.27;;;8.80;96.30;;;;;;5045734;28;20033;-71
2021/12/24 03:43:02;;;;;;;1.67;1.58;;;8.80;96.30;;;;;;5032414;28;20397;-71
2021/12/24 03:45:41;;;;;;;1.85;1.23;;;8.90;96.30;;;;;;5031459;28;20183;-71
2021/12/24 03:48:17;;;;;;;1.50;1.40;;;8.90;96.30;;;;;;5034585;28;20443;-71
2021/12/24 03:55:58;;;;;;;1.88;1.38;;;8.90;96.30;;;;;;5046062;28;20025;-71
2021/12/24 03:58:27;;;;;;;3.08;1.95;;;8.90;96.40;;;;;;5031074;28;20033;-71
2021/12/24 04:01:11;;;;;;;;;;;8.90;96.40;;;;;;5033081;28;20029;-71
2021/12/24 04:04:15;;;;;;;2.45;1.67;;;9.00;96.40;;;;;;5032598;28;19955;-71
2021/12/24 04:07:04;;;;;;;4.70;2.45;;;9.00;96.50;;;;;;5029965;28;20048;-70
2021/12/24 04:10:39;;;;;;;4.78;2.80;;;8.90;96.60;;;;;;5032954;28;20096;-71
2021/12/24 04:13:13;;;;;;;5.22;2.67;;;8.90;96.60;;;;;;5010313;28;20044;-71
2021/12/24 04:15:42;;;;;;;5.60;3.40;;;8.90;96.70;;;;;;5021493;28;20030;-71
2021/12/24 04:18:24;;;;;;;5.88;2.80;;;9.00;96.70;;;;;;5045241;28;20052;-71
2021/12/24 04:26:19;;;;;;;5.72;2.92;;;9.00;96.80;;;;;;5049709;28;20161;-71
2021/12/24 04:28:45;;;;;;;8.00;3.13;;;9.00;96.90;;;;;;5038694;28;20108;-71
2021/12/24 04:31:11;;;;;;;7.55;4.25;;;9.00;96.90;;;;;;5037449;28;20025;-71
2021/12/24 04:33:40;;;;;;;6.13;3.47;;;9.00;96.90;;;;;;5044223;28;20031;-71
2021/12/24 05:03:08;;;;;;;6.03;3.10;;;9.10;97.30;;;;;;5054072;28;20083;-71
2021/12/24 05:05:46;;;;;;;10.27;4.38;;;9.10;97.30;;;;;;5040845;28;20032;-71
2021/12/24 05:10:40;;;;;;;9.68;5.13;;;9.20;97.30;;;;;;5035989;28;20088;-75
2021/12/24 05:13:10;;;;;;;14.43;4.90;;;9.20;97.30;;;;;;5036695;28;20032;-70
2021/12/24 05:16:04;;;;;;;12.27;6.05;;;9.20;97.30;;;;;;5034747;28;20562;-71
2021/12/24 05:21:42;;;;;;;19.08;7.95;;;9.20;97.40;;;;;;5037849;28;20504;-71
2021/12/24 05:24:14;;;;;;;16.20;6.45;;;9.20;97.60;;;;;;5034383;28;20032;-70
2021/12/24 05:26:43;;;;;;;15.25;7.10;;;9.20;97.70;;;;;;5033770;28;20116;-71
2021/12/24 05:29:09;;;;;;;11.60;5.20;;;9.20;97.80;;;;;;5040700;28;20025;-71
2021/12/24 05:31:35;;;;;;;19.23;7.38;;;9.20;97.90;;;;;;5033344;28;20032;-71
2021/12/24 05:34:02;;;;;;;13.95;6.47;;;9.20;97.90;;;;;;5047409;28;20040;-71
2021/12/24 05:36:28;;;;;;;17.38;6.75;;;9.20;97.90;;;;;;5033706;28;20504;-72
2021/12/24 05:38:53;;;;;;;13.00;5.78;;;9.30;97.90;;;;;;5054752;28;20033;-71
2021/12/24 05:41:22;;;;;;;14.18;6.60;;;9.30;97.90;;;;;;5043624;28;20025;-71
2021/12/24 05:43:49;;;;;;;15.35;5.15;;;9.40;97.90;;;;;;5033302;28;20040;-71
2021/12/24 05:46:15;;;;;;;10.15;5.20;;;9.40;97.90;;;;;;5034139;28;20108;-70
2021/12/24 05:48:55;;;;;;;9.43;5.13;;;9.40;97.80;;;;;;5043782;28;20064;-71
2021/12/24 05:51:26;;;;;;;7.43;3.90;;;9.50;97.80;;;;;;5034599;28;20022;-71
2021/12/24 05:54:18;;;;;;;16.50;8.40;;;9.50;97.80;;;;;;5033989;28;20107;-71
2021/12/24 05:56:45;;;;;;;11.43;6.13;;;9.50;97.80;;;;;;5035462;28;20037;-71
2021/12/24 05:59:17;;;;;;;7.63;4.53;;;9.60;97.80;;;;;;5038001;28;20473;-71
2021/12/24 06:01:43;;;;;;;17.27;7.55;;;9.60;97.70;;;;;;5035823;28;20080;-71
2021/12/24 06:04:09;;;;;;;15.40;6.32;;;9.60;97.70;;;;;;5034373;28;20037;-71
2021/12/24 06:06:34;;;;;;;14.32;6.32;;;9.60;97.70;;;;;;5036766;28;20030;-70
2021/12/24 06:09:00;;;;;;;9.70;4.78;;;9.70;97.70;;;;;;5034628;28;20029;-71
2021/12/24 06:11:26;;;;;;;17.67;5.30;;;9.70;98.00;;;;;;5034403;28;20034;-71
2021/12/24 06:13:54;;;;;;;20.85;8.27;;;9.70;97.70;;;;;;5036626;28;20033;-71
2021/12/24 06:16:20;;;;;;;11.43;5.53;;;9.70;97.60;;;;;;5034114;28;20031;-71
2021/12/24 06:18:46;;;;;;;6.15;3.03;;;9.80;97.60;;;;;;5033368;28;20036;-71
2021/12/24 06:21:12;;;;;;;14.00;7.38;;;9.80;97.70;;;;;;5036770;28;20029;-71
2021/12/24 06:23:38;;;;;;;8.88;4.25;;;9.80;97.60;;;;;;5034308;28;20087;-71
2021/12/24 06:26:05;;;;;;;14.50;6.55;;;9.90;97.60;;;;;;5033237;28;20037;-71
2021/12/24 06:28:31;;;;;;;14.35;7.03;;;9.90;97.50;;;;;;5036847;28;20037;-71
2021/12/24 06:30:57;;;;;;;13.18;6.25;;;10.00;97.40;;;;;;5034028;28;20022;-71
2021/12/24 06:33:23;;;;;;;20.80;7.57;;;10.00;97.30;;;;;;5035975;28;20358;-71
2021/12/24 06:35:51;;;;;;;11.32;5.72;;;10.00;97.20;;;;;;5039667;28;20032;-72
2021/12/24 06:38:17;;;;;;;11.93;5.85;;;10.10;97.10;;;;;;5043074;28;20488;-71
2021/12/24 06:40:42;;;;;;;11.32;6.35;;;10.10;97.00;;;;;;5038623;28;20033;-71
2021/12/24 06:43:08;;;;;;;13.07;5.70;;;10.10;96.90;;;;;;5043174;28;20045;-71
2021/12/24 06:45:34;;;;;;;8.50;5.03;;;10.20;96.80;;;;;;5039602;28;20033;-71
2021/12/24 06:48:02;;;;;;;10.43;6.00;;;10.20;97.00;;;;;;5053595;28;20140;-71
2021/12/24 06:50:28;;;;;;;11.68;6.03;;;10.20;96.70;;;;;;5039317;28;20036;-74
2021/12/24 06:52:54;;;;;;;8.90;5.45;;;10.20;96.60;;;;;;5049591;28;20046;-69
2021/12/24 06:55:20;;;;;;;11.98;5.55;;;10.30;96.60;;;;;;5033028;28;20547;-70
2021/12/24 06:57:47;;;;;;;9.93;4.55;;;10.30;96.50;;;;;;5032854;28;20449;-71
2021/12/24 07:00:19;;;;;;;11.40;4.70;;;10.30;96.40;;;;;;5035034;28;20092;-70
2021/12/24 07:02:45;;;;;;;9.63;4.60;;;10.30;96.30;;;;;;5050920;28;20037;-71
2021/12/24 07:05:11;;;;;;;8.25;4.00;;;10.40;96.30;;;;;;5050275;28;20034;-70
2021/12/24 07:07:37;;;;;;;6.85;3.40;;;10.40;96.30;;;;;;5033405;28;20116;-70
2021/12/24 07:10:04;;;;;;;8.20;3.85;;;10.40;96.20;;;;;;5036124;28;20053;-71
2021/12/24 07:12:30;;;;;;;8.48;3.83;;;10.40;96.20;;;;;;5037830;28;20492;-74
2021/12/24 07:14:56;;;;;;;11.10;4.57;;;10.40;96.10;;;;;;5033129;28;20022;-70
2021/12/24 07:17:21;;;;;;;6.50;3.85;;;10.40;96.10;;;;;;5039892;28;20059;-70
2021/12/24 07:19:47;;;;;;;8.15;3.50;;;10.40;96.00;;;;;;5053558;28;20025;-70
2021/12/24 07:22:14;;;;;;;6.22;3.35;;;10.50;96.00;;;;;;5046140;28;20045;-70
2021/12/24 07:24:39;;;;;;;7.10;3.20;;;10.40;95.90;;;;;;5046813;28;20037;-70
2021/12/24 07:27:06;;;;;;;6.55;3.42;;;10.50;95.90;;;;;;5046761;28;20091;-70
2021/12/24 07:29:32;;;;;;;5.28;3.15;;;10.50;95.90;;;;;;5045927;28;20033;-70
2021/12/24 07:31:58;;;;;;;5.50;2.95;;;10.50;95.80;;;;;;5034894;28;20108;-70
2021/12/24 07:34:26;;;;;;;8.88;3.08;;;10.50;95.70;;;;;;5044669;28;20477;-71
2021/12/24 07:36:55;;;;;;;4.25;2.55;;;10.50;95.70;;;;;;5034082;28;20052;-70
2021/12/24 07:39:21;;;;;;;4.50;2.80;;;10.50;95.60;;;;;;5044490;28;20072;-71
2021/12/24 07:41:47;;;;;;;4.40;2.40;;;10.50;95.60;;;;;;5034202;28;20077;-71
2021/12/24 07:44:17;;;;;;;6.43;3.05;;;10.50;95.60;;;;;;5030982;28;20021;-71
2021/12/24 07:46:51;;;;;;;5.60;2.53;;;10.50;95.50;;;;;;5032977;28;20045;-70
2021/12/24 07:52:03;;;;;;;6.35;3.15;;;10.50;95.50;;;;;;5042911;28;20388;-70
2021/12/24 07:54:32;;;;;;;4.03;2.55;;;10.50;95.50;;;;;;5032695;28;20037;-71
2021/12/24 07:57:00;;;;;;;4.00;2.30;;;10.60;95.40;;;;;;5035092;28;20029;-70
2021/12/24 07:59:27;;;;;;;3.85;2.40;;;10.50;95.30;;;;;;5032029;28;20025;-70
2021/12/24 08:01:56;;;;;;;3.92;2.17;;;10.60;95.30;;;;;;5040793;28;20041;-70
2021/12/24 08:04:22;;;;;;;5.50;1.75;;;10.60;95.20;;;;;;5036900;28;20837;-70
2021/12/24 08:06:49;;;;;;;3.65;2.00;;;10.60;95.10;;;;;;5038287;28;20037;-70
2021/12/24 08:09:15;;;;;;;2.42;1.70;;;10.60;95.00;;;;;;5040716;28;20029;-69
2021/12/24 08:11:40;;;;;;;2.55;1.75;;;10.70;95.00;;;;;;5039798;28;20087;-78
2021/12/24 08:14:07;;;;;;;2.35;1.67;;;10.70;94.90;;;;;;5040679;28;20082;-77
2021/12/24 08:16:34;;;;;;;2.78;1.92;;;10.60;94.70;;;;;;5041596;28;20032;-78
2021/12/24 08:19:00;;;;;;;1.77;1.52;;;10.70;94.70;;;;;;5040191;28;20053;-76
2021/12/24 08:21:26;;;;;;;3.00;1.73;;;10.70;94.60;;;;;;5036840;28;20033;-76
2021/12/24 08:23:52;;;;;;;2.33;1.85;;;10.70;94.50;;;;;;5040761;28;20094;-76
2021/12/24 08:26:21;;;;;;;2.10;1.90;;;10.70;94.40;;;;;;5038429;28;20476;-82
2021/12/24 08:28:47;;;;;;;2.90;1.88;;;10.70;94.40;;;;;;5043205;28;20047;-86
2021/12/24 08:31:13;;;;;;;2.53;1.60;;;10.70;94.30;;;;;;5042592;28;20036;-85
2021/12/24 08:33:39;;;;;;;5.20;1.80;;;10.70;94.30;;;;;;5040493;28;20025;-86
2021/12/24 08:36:06;;;;;;;1.90;1.55;;;10.70;94.30;;;;;;5039897;28;20504;-77
2021/12/24 08:38:32;;;;;;;3.05;2.00;;;10.70;94.20;;;;;;5038363;28;20086;-78
2021/12/24 08:40:57;;;;;;;3.47;2.00;;;10.70;94.10;;;;;;5035180;28;20033;-78
2021/12/24 08:43:23;;;;;;;2.78;1.80;;;10.70;94.00;;;;;;5042230;28;20087;-78
2021/12/24 08:45:49;;;;;;;3.13;2.13;;;10.60;93.90;;;;;;5037861;28;20025;-79
2021/12/24 08:48:14;;;;;;;2.90;2.10;;;10.60;93.90;;;;;;5042588;28;20043;-79
2021/12/24 08:50:40;;;;;;;3.45;2.15;;;10.60;93.80;;;;;;5042059;28;20029;-79
2021/12/24 08:53:07;;;;;;;3.17;2.08;;;10.60;93.80;;;;;;5036966;28;20390;-78
2021/12/24 08:55:33;;;;;;;4.03;2.40;;;10.60;93.70;;;;;;5037731;28;20029;-77
2021/12/24 08:57:59;;;;;;;3.50;2.17;;;10.60;93.70;;;;;;5041930;28;20575;-77
2021/12/24 09:00:25;;;;;;;2.67;1.92;;;10.60;93.60;;;;;;5040390;28;20027;-79
2021/12/24 09:02:50;;;;;;;4.47;2.60;;;10.50;93.60;;;;;;5040624;28;20033;-79
2021/12/24 09:05:16;;;;;;;4.45;2.80;;;10.50;93.50;;;;;;5037294;28;20029;-78
2021/12/24 09:07:42;;;;;;;4.60;2.83;;;10.50;93.50;;;;;;5039678;28;20064;-78
2021/12/24 09:10:12;;;;;;;7.25;3.50;;;10.50;93.50;;;;;;5036422;28;20480;-68
2021/12/24 09:12:39;;;;;;;5.55;3.30;;;10.50;93.50;;;;;;5039138;28;20044;-68
2021/12/24 09:15:06;;;;;;;4.22;3.20;;;10.50;93.50;;;;;;5039036;28;20329;-68
2021/12/24 09:17:32;;;;;;;6.00;3.63;;;10.50;93.40;;;;;;5032519;28;20044;-68
2021/12/24 09:19:58;;;;;;;6.25;3.50;;;10.40;93.40;;;;;;5042477;28;20397;-66
2021/12/24 09:22:30;;;;;;;4.45;2.85;;;10.40;93.30;;;;;;5035095;28;20648;-68
2021/12/24 09:24:57;;;;;;;5.57;3.15;;;10.40;93.20;;;;;;5037632;28;20372;-68
2021/12/24 09:27:24;;;;;;;5.38;3.35;;;10.40;93.20;;;;;;5040022;28;20037;-68
2021/12/24 09:29:49;;;;;;;8.18;3.45;;;10.40;93.20;;;;;;5039433;28;20464;-68
2021/12/24 09:32:15;;;;;;;5.82;3.50;;;10.40;93.20;;;;;;5042924;28;20087;-69
2021/12/24 09:34:41;;;;;;;5.72;3.50;;;10.40;93.20;;;;;;5039131;28;20107;-69
2021/12/24 09:37:07;;;;;;;5.32;3.22;;;10.30;93.20;;;;;;5046458;28;20087;-68
2021/12/24 09:39:33;;;;;;;5.15;2.80;;;10.40;93.10;;;;;;5052154;28;20040;-67
2021/12/24 09:42:00;;;;;;;6.18;3.30;;;10.30;93.10;;;;;;5050675;28;20020;-68
2021/12/24 09:44:26;;;;;;;5.55;3.28;;;10.30;93.10;;;;;;5053981;28;20087;-68
2021/12/24 09:46:52;;;;;;;4.93;2.97;;;10.30;93.20;;;;;;5051711;28;20414;-68
2021/12/24 09:49:17;;;;;;;4.70;2.67;;;10.20;93.10;;;;;;5054266;28;20079;-68
2021/12/24 09:51:51;;;;;;;6.05;2.90;;;10.20;93.20;;;;;;5051399;28;20358;-68
2021/12/24 09:54:22;;;;;;;4.85;2.92;;;10.20;93.20;;;;;;5047831;28;20481;-68
2021/12/24 09:56:50;;;;;;;4.78;2.95;;;10.20;93.20;;;;;;5047408;28;20500;-68
2021/12/24 09:59:16;;;;;;;5.03;3.10;;;10.10;93.20;;;;;;5054157;28;20045;-68
2021/12/24 10:01:49;;;;;;;7.57;3.05;;;10.20;93.20;;;;;;5051567;28;20079;-69
2021/12/24 10:04:17;;;;;;;5.60;3.28;;;10.10;93.20;;;;;;5050918;28;20067;-69
2021/12/24 10:06:52;;;;;;;4.63;2.83;;;10.10;93.20;;;;;;5048646;28;20029;-68
2021/12/24 10:09:21;;;;;;;3.83;2.30;;;10.10;93.20;;;;;;5037738;28;20029;-68
2021/12/24 10:11:51;;;;;;;5.43;2.50;;;10.10;93.20;;;;;;5039833;28;20028;-68
2021/12/24 10:14:21;;;;;;;5.05;2.40;;;10.00;93.20;;;;;;5044366;28;20041;-69
2021/12/24 10:16:51;;;;;;;4.53;2.22;;;10.00;93.20;;;;;;5038494;28;20025;-69
2021/12/24 10:19:19;;;;;;;4.47;2.53;;;10.00;93.20;;;;;;5044437;28;20040;-68
2021/12/24 10:21:45;;;;;;;3.58;2.38;;;10.00;93.20;;;;;;5043012;28;20079;-69
2021/12/24 10:24:12;;;;;;;4.15;2.47;;;9.90;93.20;;;;;;5045503;28;20029;-69
2021/12/24 10:26:49;;;;;;;4.30;2.55;;;10.00;93.20;;;;;;5043911;28;20388;-69
2021/12/24 10:29:27;;;;;;;3.92;2.33;;;9.90;93.20;;;;;;5041189;28;20033;-70
2021/12/24 10:31:55;;;;;;;2.78;2.03;;;9.90;93.20;;;;;;5040975;28;20028;-69
2021/12/24 10:34:34;;;;;;;4.75;2.40;;;9.90;93.10;;;;;;5041897;28;20029;-68
2021/12/24 10:37:02;;;;;;;4.03;2.63;;;9.90;93.10;;;;;;5042066;28;20161;-68
2021/12/24 10:39:46;;;;;;;3.60;2.10;;;9.90;93.10;;;;;;5039471;28;20025;-68
2021/12/24 10:42:28;;;;;;;3.42;2.08;;;9.90;93.10;;;;;;5048478;28;20649;-68
2021/12/24 10:44:56;;;;;;;4.53;2.40;;;9.90;93.00;;;;;;5044689;28;20045;-68
2021/12/24 10:47:31;;;;;;;2.88;2.00;;;9.90;93.00;;;;;;5040965;28;20032;-68
2021/12/24 10:50:11;;;;;;;4.18;2.30;;;9.80;93.00;;;;;;5044498;28;20036;-68
2021/12/24 10:53:32;;;;;;;3.42;2.15;;;9.80;92.90;;;;;;5046383;28;20370;-68
2021/12/24 10:56:00;;;;;;;3.60;2.13;;;9.80;92.90;;;;;;5036968;28;20034;-69
2021/12/24 10:58:28;;;;;;;2.60;1.90;;;9.80;92.80;;;;;;5039523;28;20496;-68
2021/12/24 11:00:56;;;;;;;3.35;2.25;;;9.80;92.80;;;;;;5037260;28;20293;-68
2021/12/24 11:03:24;;;;;;;3.95;2.35;;;9.80;92.80;;;;;;5038779;28;20108;-68
2021/12/24 11:06:01;;;;;;;3.17;2.20;;;9.80;92.80;;;;;;5033981;28;20470;-68
2021/12/24 11:08:27;;;;;;;3.88;2.13;;;9.80;92.70;;;;;;5032994;28;20037;-69
2021/12/24 11:10:55;;;;;;;3.65;2.50;;;9.80;92.70;;;;;;5037103;28;20112;-68
2021/12/24 11:13:29;;;;;;;4.47;2.65;;;9.80;92.70;;;;;;5034076;28;20029;-68
2021/12/24 11:15:55;;;;;;;4.03;2.17;;;9.90;92.70;;;;;;5033178;28;20041;-68
2021/12/24 11:18:25;;;;;;;4.32;2.45;;;9.90;92.60;;;;;;5046678;28;20055;-68
2021/12/24 11:20:58;;;;;;;3.88;2.33;;;9.90;92.90;;;;;;5033699;28;20044;-68
2021/12/24 11:23:26;;;;;;;5.88;2.53;;;9.90;92.60;;;;;;5046775;28;20045;-68
2021/12/24 11:26:16;;;;;;;3.63;2.25;;;9.90;92.60;;;;;;5042719;28;20029;-68
2021/12/24 11:28:42;;;;;;;4.85;2.20;;;9.90;92.60;;;;;;5032775;28;20041;-68
2021/12/24 11:31:16;;;;;;;3.92;2.30;;;9.90;92.60;;;;;;5033371;28;20030;-69
2021/12/24 11:33:43;;;;;;;8.65;2.60;;;10.00;92.60;;;;;;5049117;28;20071;-68
2021/12/24 11:36:11;;;;;;;4.72;2.15;;;9.90;92.60;;;;;;5052864;28;20033;-68
2021/12/24 11:38:54;;;;;;;3.75;2.33;;;10.00;92.60;;;;;;5037111;28;20040;-68
2021/12/24 11:41:26;;;;;;;4.75;2.38;;;10.00;92.60;;;;;;5034761;28;20095;-69
2021/12/24 11:43:55;;;;;;;5.07;2.78;;;10.10;92.60;;;;;;5034069;28;20046;-69
2021/12/24 11:46:24;;;;;;;5.25;2.40;;;10.10;92.60;;;;;;5031865;28;20034;-69
2021/12/24 11:48:54;;;;;;;3.17;2.00;;;10.10;92.50;;;;;;5036920;28;20163;-70
2021/12/24 11:51:20;;;;;;;3.60;2.22;;;10.20;92.50;;;;;;5028319;28;20072;-69
2021/12/24 11:53:47;;;;;;;4.20;1.90;;;10.10;92.50;;;;;;5032809;28;20076;-69
2021/12/24 11:56:15;;;;;;;3.35;1.95;;;10.20;92.50;;;;;;5032450;28;20082;-69
2021/12/24 11:58:59;;;;;;;6.40;2.28;;;10.20;92.50;;;;;;5037527;28;20022;-68
2021/12/24 12:01:28;;;;;;;2.60;1.67;;;10.10;92.50;;;;;;5031955;28;20489;-69
2021/12/24 12:03:55;;;;;;;4.78;2.08;;;10.10;92.60;;;;;;5031522;28;20036;-69
2021/12/24 12:06:24;;;;;;;3.42;1.98;;;10.10;92.60;;;;;;5033907;28;20021;-69
2021/12/24 12:08:52;;;;;;;2.85;1.92;;;10.10;92.60;;;;;;5032518;28;20052;-69
2021/12/24 12:11:21;;;;;;;2.65;1.80;;;10.10;92.60;;;;;;5031387;28;20366;-70
2021/12/24 12:13:52;;;;;;;2.83;1.83;;;10.10;92.60;;;;;;5032108;28;20025;-70
2021/12/24 12:16:25;;;;;;;3.10;1.83;;;10.10;92.60;;;;;;5032100;28;20119;-69
2021/12/24 12:19:12;;;;;;;3.47;2.22;;;10.10;92.60;;;;;;5037526;28;20033;-69
2021/12/24 12:21:42;;;;;;;5.78;3.45;;;10.20;92.60;;;;;;5030848;28;20038;-69
2021/12/24 12:26:50;;;;;;;3.47;2.28;;;10.20;92.50;;;;;;5031135;28;20061;-70
2021/12/24 12:29:16;;;;;;;4.10;2.45;;;10.10;92.40;;;;;;5031792;28;20029;-79
2021/12/24 12:31:42;;;;;;;3.33;1.80;;;10.20;92.40;;;;;;5033696;28;20021;-70
2021/12/24 12:34:39;;;;;;;2.30;1.88;;;10.20;92.40;;;;;;5046737;28;20033;-68
2021/12/24 12:37:13;;;;;;;2.13;1.67;;;10.20;92.40;;;;;;5048775;28;20067;-70
2021/12/24 12:39:39;;;;;;;2.22;1.83;;;10.20;92.40;;;;;;5035810;28;20071;-70
2021/12/24 12:42:05;;;;;;;2.80;1.90;;;10.20;92.40;;;;;;5032033;28;20057;-70
2021/12/24 12:44:33;;;;;;;3.03;2.10;;;10.20;92.40;;;;;;5034382;28;20028;-70
2021/12/24 12:47:21;;;;;;;3.10;1.80;;;10.20;92.40;;;;;;5035693;28;20036;-70
2021/12/24 12:49:47;;;;;;;2.63;1.95;;;10.20;92.50;;;;;;5034508;28;20064;-70
2021/12/24 12:52:30;;;;;;;3.40;1.83;;;10.10;92.40;;;;;;5034407;28;20030;-71
2021/12/24 12:54:56;;;;;;;2.13;1.48;;;10.20;92.50;;;;;;5037797;28;20045;-71
2021/12/24 12:57:31;;;;;;;3.85;2.10;;;10.20;92.50;;;;;;5042368;28;20456;-71
2021/12/24 13:00:19;;;;;;;5.28;2.38;;;10.20;92.50;;;;;;5037813;28;20119;-71
2021/12/24 13:02:57;;;;;;;6.63;2.20;;;10.20;92.50;;;;;;5041664;28;20034;-69
2021/12/24 13:05:25;;;;;;;3.13;1.90;;;10.10;92.70;;;;;;5039663;28;20056;-70
2021/12/24 13:07:51;;;;;;;4.95;1.80;;;10.10;92.50;;;;;;5042921;28;20373;-71
2021/12/24 13:10:18;;;;;;;3.55;2.05;;;10.10;92.50;;;;;;5047508;28;20029;-70
2021/12/24 13:12:44;;;;;;;2.78;1.90;;;10.10;92.50;;;;;;5045294;28;20082;-70
2021/12/24 13:15:16;;;;;;;4.57;2.75;;;10.10;92.60;;;;;;5047955;28;20481;-70
2021/12/24 13:17:48;;;;;;;5.78;2.17;;;10.10;92.50;;;;;;5047004;28;20047;-70
2021/12/24 13:22:42;;;;;;;3.53;2.35;;;10.10;92.50;;;;;;5040942;28;20098;-68
2021/12/24 13:25:14;;;;;;;4.05;2.65;;;10.10;92.50;;;;;;5046151;28;21404;-67
2021/12/24 13:27:52;;;;;;;5.32;2.30;;;10.20;92.50;;;;;;5042443;28;20481;-68
2021/12/24 13:30:20;;;;;;;3.95;2.50;;;10.10;92.50;;;;;;5034339;28;20034;-66
2021/12/24 13:32:49;;;;;;;3.10;2.10;;;10.20;92.50;;;;;;5036467;28;20029;-68
2021/12/24 13:35:25;;;;;;;4.03;2.45;;;10.20;92.50;;;;;;5034750;28;20481;-67
2021/12/24 13:37:52;;;;;;;4.50;2.50;;;10.20;92.40;;;;;;5035322;28;20192;-68
2021/12/24 13:40:20;;;;;;;3.20;2.20;;;10.20;92.50;;;;;;5038096;28;20033;-67
2021/12/24 13:42:52;;;;;;;4.05;2.38;;;10.30;92.50;;;;;;5034270;28;21320;-68
2021/12/24 13:45:20;;;;;;;3.17;2.45;;;10.30;92.50;;;;;;5035830;28;20481;-68
2021/12/24 13:55:37;;;;;;;4.60;2.47;;;10.30;92.40;;;;;;5044174;28;20071;-68
2021/12/24 13:58:09;;;;;;;9.38;2.72;;;10.30;92.40;;;;;;5042029;28;20116;-68
2021/12/24 14:00:38;;;;;;;5.05;2.35;;;10.30;92.30;;;;;;5038632;28;20484;-68
2021/12/24 14:03:07;;;;;;;4.55;2.33;;;10.30;92.30;;;;;;5037368;28;20033;-68
2021/12/24 14:05:32;;;;;;;4.85;2.25;;;10.40;92.30;;;;;;5050410;28;20710;-77
2021/12/24 14:08:06;;;;;;;2.47;1.92;;;10.30;92.30;;;;;;5036556;28;20116;-68
2021/12/24 14:10:32;;;;;;;4.00;1.80;;;10.40;92.30;;;;;;5036019;28;20033;-68
2021/12/24 14:13:05;;;;;;;1.52;1.23;;;10.30;92.30;;;;;;5034408;28;20116;-69
2021/12/24 14:15:42;;;;;;;2.92;1.58;;;10.30;92.20;;;;;;5036757;28;20029;-69
2021/12/24 14:18:31;;;;;;;3.80;1.10;;;10.30;92.10;;;;;;5033043;28;20045;-69
2021/12/24 14:21:45;;;;;;;2.45;1.00;;;10.30;92.10;;;;;;5034161;28;20100;-68
2021/12/24 14:24:04;;;;;;;2.75;0.90;;;10.30;92.10;;;;;;5033589;28;20069;-69
2021/12/24 14:26:34;;;;;;;1.50;0.60;;;10.30;92.10;;;;;;5033970;28;20469;-68
2021/12/24 14:29:05;;;;;;;6.03;0.90;;;10.30;92.10;;;;;;5034120;28;20044;-68
2021/12/24 14:31:57;;;;;;;4.75;0.75;;;10.30;92.10;;;;;;5036219;28;20033;-68
2021/12/24 14:34:33;;;;;;;0.75;0.55;;;10.30;92.10;;;;;;5034252;28;20037;-69
2021/12/24 14:37:03;;;;;;;1.90;0.73;;;10.30;92.20;;;;;;5034311;28;20033;-68
2021/12/24 14:39:45;;;;;;;2.63;0.95;;;10.30;92.00;;;;;;5037176;28;20382;-69
2021/12/24 14:42:22;;;;;;;2.33;0.60;;;10.30;91.90;;;;;;5033134;28;20108;-69
2021/12/24 14:44:51;;;;;;;0.93;0.73;;;10.30;91.90;;;;;;5032636;28;20476;-77
2021/12/24 14:47:25;;;;;;;4.20;0.98;;;10.40;91.90;;;;;;5032663;28;20110;-68
2021/12/24 14:50:00;;;;;;;2.13;0.73;;;10.30;91.80;;;;;;5033966;28;20087;-69
2021/12/24 14:52:26;;;;;;;2.80;1.02;;;10.30;91.70;;;;;;5037453;28;20048;-81
2021/12/24 14:55:37;;;;;;;2.78;0.70;;;10.30;91.90;;;;;;5035058;28;20128;-67
2021/12/24 14:58:03;;;;;;;4.50;1.20;;;10.10;92.00;;;;;;5022475;28;20120;-68